Time;durP1;ratioP1;P1;durP2;ratioP2;P2;SDS_P1;SDS_P2;PMS_P1;PMS_P2;Temp;Humidity;BMP_temperature;BMP_pressure;BME280_temperature;BME280_humidity;BME280_pressure;Samples;Min_cycle;Max_cycle;Signal;HPM_P1;HPM_P2
2022/05/09 00:00:26;;;;;;;12.47;11.27;;;13.50;99.90;;;;;;4925404;29;20457;-86
2022/05/09 00:02:53;;;;;;;10.90;10.00;;;13.50;99.90;;;;;;4917174;29;20490;-86
2022/05/09 00:05:24;;;;;;;11.60;10.60;;;13.40;99.90;;;;;;4924911;29;20462;-87
2022/05/09 00:07:52;;;;;;;13.17;11.93;;;13.40;99.90;;;;;;4914960;29;20459;-86
2022/05/09 00:10:22;;;;;;;12.03;10.87;;;13.40;99.90;;;;;;4911758;29;20452;-86
2022/05/09 00:12:49;;;;;;;11.20;10.20;;;13.30;99.90;;;;;;4915776;29;20482;-86
2022/05/09 00:15:18;;;;;;;16.03;11.70;;;13.30;99.90;;;;;;4911741;29;20459;-85
2022/05/09 00:17:46;;;;;;;11.53;10.43;;;13.00;99.90;;;;;;4911960;29;20538;-85
2022/05/09 00:20:14;;;;;;;12.50;11.30;;;12.80;99.90;;;;;;4909252;29;20455;-87
2022/05/09 00:22:46;;;;;;;13.13;11.83;;;12.60;99.90;;;;;;4922558;29;20493;-85
2022/05/09 00:25:14;;;;;;;11.40;10.40;;;12.60;99.90;;;;;;4925031;29;20799;-84
2022/05/09 00:27:41;;;;;;;12.20;11.20;;;12.60;99.90;;;;;;4908230;29;20467;-86
2022/05/09 00:30:09;;;;;;;12.47;11.30;;;12.50;99.90;;;;;;4914110;29;20864;-87
2022/05/09 00:32:36;;;;;;;13.87;12.60;;;12.50;99.90;;;;;;4888211;29;20475;-85
2022/05/09 00:35:03;;;;;;;11.90;10.80;;;12.60;99.90;;;;;;4920493;29;20462;-86
2022/05/09 00:37:30;;;;;;;12.10;10.80;;;12.60;99.90;;;;;;4928991;29;20468;-86
2022/05/09 00:39:56;;;;;;;12.70;11.60;;;12.60;99.90;;;;;;4914096;29;20469;-86
2022/05/09 00:42:25;;;;;;;10.87;9.87;;;12.70;99.90;;;;;;4925979;29;20490;-86
2022/05/09 00:44:51;;;;;;;12.63;11.63;;;12.70;99.90;;;;;;4929268;29;20453;-86
2022/05/09 00:47:20;;;;;;;11.63;10.57;;;12.80;99.90;;;;;;4912637;29;20474;-86
2022/05/09 00:49:50;;;;;;;13.03;11.83;;;12.80;99.90;;;;;;4910691;29;20558;-86
2022/05/09 00:52:23;;;;;;;13.80;12.47;;;12.80;99.90;;;;;;4926834;29;20565;-86
2022/05/09 00:54:56;;;;;;;12.73;11.43;;;12.80;99.90;;;;;;4928881;29;20438;-86
2022/05/09 00:57:30;;;;;;;13.27;11.70;;;12.70;99.90;;;;;;4920457;29;20462;-85
2022/05/09 01:00:01;;;;;;;13.50;12.10;;;12.60;99.90;;;;;;4920911;29;20454;-86
2022/05/09 01:02:29;;;;;;;14.47;13.07;;;12.50;99.90;;;;;;4915041;29;20473;-86
2022/05/09 01:04:59;;;;;;;15.03;13.63;;;12.40;99.90;;;;;;4921766;29;20463;-86
2022/05/09 01:07:26;;;;;;;13.30;12.10;;;12.40;99.90;;;;;;4915876;29;20462;-86
2022/05/09 01:09:53;;;;;;;12.40;11.20;;;12.40;99.90;;;;;;4926476;29;20464;-85
2022/05/09 01:12:23;;;;;;;12.60;11.50;;;12.40;99.90;;;;;;4925871;29;20481;-85
2022/05/09 01:14:55;;;;;;;14.80;13.27;;;12.40;99.90;;;;;;4910516;29;20458;-85
2022/05/09 01:17:23;;;;;;;14.37;13.07;;;12.50;99.90;;;;;;4909122;29;20459;-86
2022/05/09 01:19:52;;;;;;;14.70;13.20;;;12.40;99.90;;;;;;4908613;29;20960;-85
2022/05/09 01:22:25;;;;;;;15.30;14.10;;;12.40;99.90;;;;;;4921629;29;20485;-85
2022/05/09 01:24:53;;;;;;;13.70;12.53;;;12.30;99.90;;;;;;4925019;29;20489;-86
2022/05/09 01:27:20;;;;;;;13.17;11.93;;;12.30;99.90;;;;;;4926491;29;20457;-86
2022/05/09 01:29:54;;;;;;;13.43;12.03;;;12.30;99.90;;;;;;4928945;29;20480;-86
2022/05/09 01:32:27;;;;;;;14.13;12.97;;;12.30;99.90;;;;;;4937067;29;20487;-85
2022/05/09 01:34:59;;;;;;;13.50;12.27;;;12.30;99.90;;;;;;4927334;29;20461;-86
2022/05/09 01:37:29;;;;;;;13.50;12.20;;;12.30;99.90;;;;;;4922445;29;20465;-86
2022/05/09 01:39:56;;;;;;;12.47;11.27;;;12.30;99.90;;;;;;4928756;29;20465;-88
2022/05/09 01:42:23;;;;;;;13.80;11.83;;;12.30;99.90;;;;;;4914784;29;20487;-86
2022/05/09 01:44:50;;;;;;;13.07;11.83;;;12.30;99.90;;;;;;4914246;29;20485;-87
2022/05/09 01:50:01;;;;;;;13.30;12.17;;;12.10;99.90;;;;;;4929266;29;20449;-86
2022/05/09 01:52:29;;;;;;;12.00;10.90;;;12.10;99.90;;;;;;4929046;29;20488;-83
2022/05/09 01:54:56;;;;;;;14.30;13.00;;;12.00;99.90;;;;;;4910874;29;20451;-84
2022/05/09 01:57:23;;;;;;;12.67;11.57;;;11.80;99.90;;;;;;4926858;29;20472;-84
2022/05/09 01:59:50;;;;;;;14.33;12.87;;;11.80;99.90;;;;;;4926848;29;20454;-83
2022/05/09 02:02:19;;;;;;;13.27;12.10;;;11.80;99.90;;;;;;4909636;29;20482;-83
2022/05/09 02:04:47;;;;;;;15.37;14.07;;;11.90;99.90;;;;;;4915900;29;20854;-83
2022/05/09 02:07:16;;;;;;;14.10;12.70;;;11.90;99.90;;;;;;4927235;29;20473;-83
2022/05/09 02:09:46;;;;;;;13.70;12.57;;;11.90;99.90;;;;;;4930999;29;20453;-84
2022/05/09 02:12:15;;;;;;;14.53;13.23;;;11.90;99.90;;;;;;4911707;29;20486;-84
2022/05/09 02:14:43;;;;;;;13.50;12.23;;;11.90;99.90;;;;;;4916420;29;20453;-84
2022/05/09 02:17:11;;;;;;;16.63;14.80;;;11.80;99.90;;;;;;4930233;29;20486;-83
2022/05/09 02:19:39;;;;;;;13.13;12.03;;;11.90;99.90;;;;;;4930509;29;20454;-83
2022/05/09 02:22:06;;;;;;;17.10;14.27;;;11.90;99.90;;;;;;4920089;29;20478;-83
2022/05/09 02:24:33;;;;;;;13.97;12.67;;;11.90;99.90;;;;;;4912996;29;20493;-84
2022/05/09 02:27:01;;;;;;;11.93;11.03;;;12.00;99.90;;;;;;4928871;29;20461;-83
2022/05/09 02:29:31;;;;;;;12.73;11.63;;;12.00;99.90;;;;;;4931129;29;20465;-83
2022/05/09 02:31:57;;;;;;;14.33;13.03;;;12.00;99.90;;;;;;4914396;29;21056;-83
2022/05/09 02:34:24;;;;;;;12.73;11.43;;;12.00;99.90;;;;;;4911312;29;20446;-84
2022/05/09 02:36:51;;;;;;;14.10;12.80;;;12.00;99.90;;;;;;4907925;29;20988;-84
2022/05/09 02:39:18;;;;;;;15.90;14.33;;;11.90;99.90;;;;;;4924857;29;20466;-84
2022/05/09 02:41:45;;;;;;;15.40;13.80;;;11.90;99.90;;;;;;4909526;29;20470;-83
2022/05/09 02:44:13;;;;;;;14.33;13.03;;;11.80;99.90;;;;;;4908325;29;20498;-83
2022/05/09 02:46:42;;;;;;;15.13;13.80;;;11.80;99.90;;;;;;4928359;29;20517;-83
2022/05/09 02:49:08;;;;;;;14.63;13.23;;;11.70;99.90;;;;;;4924334;29;20458;-84
2022/05/09 02:51:35;;;;;;;14.63;13.27;;;11.70;99.90;;;;;;4914728;29;20454;-84
2022/05/09 02:54:02;;;;;;;13.30;12.20;;;11.70;99.90;;;;;;4928256;29;20470;-84
2022/05/09 02:56:29;;;;;;;14.50;12.57;;;11.70;99.90;;;;;;4924212;29;20462;-84
2022/05/09 02:58:56;;;;;;;15.20;13.10;;;11.70;99.90;;;;;;4914782;29;20465;-83
2022/05/09 03:01:24;;;;;;;14.70;13.17;;;11.70;99.90;;;;;;4916967;29;20535;-82
2022/05/09 03:06:35;;;;;;;14.30;13.00;;;11.60;99.90;;;;;;4923949;29;20444;-83
2022/05/09 03:09:02;;;;;;;15.00;13.50;;;11.60;99.90;;;;;;4926738;29;20460;-84
2022/05/09 03:11:30;;;;;;;14.17;12.90;;;11.60;99.90;;;;;;4927152;29;20466;-83
2022/05/09 03:13:57;;;;;;;13.90;12.60;;;11.70;99.90;;;;;;4919295;29;20514;-82
2022/05/09 03:16:25;;;;;;;13.63;12.50;;;11.70;99.90;;;;;;4916162;29;20483;-82
2022/05/09 03:18:52;;;;;;;13.53;12.23;;;11.60;99.90;;;;;;4920766;29;20466;-83
2022/05/09 03:21:19;;;;;;;14.57;12.40;;;11.60;99.90;;;;;;4917499;29;20469;-82
2022/05/09 03:23:46;;;;;;;14.03;12.67;;;11.60;99.90;;;;;;4915852;29;20497;-83
2022/05/09 03:26:13;;;;;;;14.63;13.27;;;11.60;99.90;;;;;;4921920;29;20525;-82
2022/05/09 03:28:40;;;;;;;15.70;14.30;;;11.60;99.90;;;;;;4928825;29;20462;-82
2022/05/09 03:31:07;;;;;;;16.60;15.00;;;11.50;99.90;;;;;;4927489;29;20457;-82
2022/05/09 03:33:35;;;;;;;15.03;13.53;;;11.50;99.90;;;;;;4927844;29;20484;-82
2022/05/09 03:36:02;;;;;;;15.67;14.17;;;11.50;99.90;;;;;;4910040;29;20466;-82
2022/05/09 03:38:29;;;;;;;14.77;13.30;;;11.50;99.90;;;;;;4920237;29;20876;-83
2022/05/09 03:40:56;;;;;;;15.10;13.53;;;11.40;99.90;;;;;;4911839;29;21019;-83
2022/05/09 03:43:23;;;;;;;15.80;14.33;;;11.40;99.90;;;;;;4902789;29;20487;-84
2022/05/09 03:45:52;;;;;;;14.27;12.90;;;11.40;99.90;;;;;;4903512;29;20469;-83
2022/05/09 03:48:19;;;;;;;15.20;13.60;;;11.40;99.90;;;;;;4903621;29;20466;-83
2022/05/09 03:50:47;;;;;;;14.90;13.50;;;11.40;99.90;;;;;;4920578;29;20822;-83
2022/05/09 03:53:14;;;;;;;16.53;14.83;;;11.40;99.90;;;;;;4920319;29;20492;-83
2022/05/09 03:55:41;;;;;;;18.17;16.27;;;11.20;99.90;;;;;;4911342;29;20461;-82
2022/05/09 03:58:08;;;;;;;14.73;13.40;;;11.20;99.90;;;;;;4918865;29;20549;-83
2022/05/09 04:00:35;;;;;;;16.67;14.93;;;11.20;99.90;;;;;;4919585;29;20457;-83
2022/05/09 04:03:04;;;;;;;15.63;14.03;;;11.20;99.90;;;;;;4912822;29;20486;-83
2022/05/09 04:05:31;;;;;;;17.10;15.47;;;11.20;99.90;;;;;;4914936;29;20861;-83
2022/05/09 04:08:00;;;;;;;17.07;15.47;;;11.20;99.90;;;;;;4921608;29;20453;-83
2022/05/09 04:10:30;;;;;;;16.50;14.97;;;11.10;99.90;;;;;;4913085;29;20631;-83
2022/05/09 04:12:57;;;;;;;16.17;14.73;;;11.10;99.90;;;;;;4927567;29;20503;-83
2022/05/09 04:18:08;;;;;;;16.40;14.70;;;11.30;99.90;;;;;;4906043;29;20461;-83
2022/05/09 04:20:36;;;;;;;17.20;14.80;;;11.30;99.90;;;;;;4903869;29;20407;-82
2022/05/09 04:23:06;;;;;;;16.67;15.00;;;11.30;99.90;;;;;;4929924;29;20464;-82
2022/05/09 04:25:32;;;;;;;17.73;15.93;;;11.30;99.90;;;;;;4931335;29;20477;-83
2022/05/09 04:28:00;;;;;;;16.23;14.63;;;11.40;99.90;;;;;;4916876;29;20463;-83
2022/05/09 04:30:27;;;;;;;16.27;14.57;;;11.40;99.90;;;;;;4911517;29;20457;-83
2022/05/09 04:32:54;;;;;;;16.10;14.70;;;11.40;99.90;;;;;;4913507;29;20492;-82
2022/05/09 04:35:21;;;;;;;15.07;13.30;;;11.50;99.90;;;;;;4920339;29;20520;-83
2022/05/09 04:37:49;;;;;;;14.70;13.40;;;11.40;99.90;;;;;;4908375;29;20521;-82
2022/05/09 04:40:19;;;;;;;16.13;14.77;;;11.50;99.90;;;;;;4908507;29;20482;-83
2022/05/09 04:42:46;;;;;;;15.63;14.10;;;11.50;99.90;;;;;;4926850;29;20478;-82
2022/05/09 04:45:14;;;;;;;15.40;13.80;;;11.60;99.90;;;;;;4924611;29;20503;-83
2022/05/09 04:47:42;;;;;;;16.10;14.50;;;11.60;99.90;;;;;;4926723;29;20452;-84
2022/05/09 04:50:11;;;;;;;14.77;13.40;;;11.60;99.90;;;;;;4925708;29;21035;-83
2022/05/09 04:52:38;;;;;;;13.97;12.70;;;11.70;99.90;;;;;;4925144;29;20493;-83
2022/05/09 04:55:06;;;;;;;17.57;15.77;;;11.70;99.90;;;;;;4926403;29;20458;-83
2022/05/09 04:57:34;;;;;;;15.00;13.60;;;11.80;99.90;;;;;;4926340;29;20462;-83
2022/05/09 05:00:02;;;;;;;15.47;13.83;;;11.80;99.90;;;;;;4924687;29;20894;-83
2022/05/09 05:02:28;;;;;;;17.90;16.10;;;11.90;99.90;;;;;;4927999;29;20493;-84
2022/05/09 05:04:55;;;;;;;16.30;14.70;;;11.90;99.90;;;;;;4915781;29;20489;-83
2022/05/09 05:07:22;;;;;;;15.50;13.93;;;11.90;99.90;;;;;;4908069;29;20470;-83
2022/05/09 05:09:49;;;;;;;17.00;15.40;;;12.00;99.90;;;;;;4919301;29;20469;-82
2022/05/09 05:12:16;;;;;;;16.17;14.50;;;12.00;99.90;;;;;;4912503;29;20475;-83
2022/05/09 05:14:44;;;;;;;16.90;15.30;;;12.10;99.90;;;;;;4922906;29;20489;-83
2022/05/09 05:17:11;;;;;;;14.80;13.60;;;12.10;99.90;;;;;;4920263;29;20458;-83
2022/05/09 05:19:40;;;;;;;16.10;14.70;;;12.20;99.90;;;;;;4923318;29;20462;-84
2022/05/09 05:22:08;;;;;;;16.20;14.70;;;12.30;99.90;;;;;;4906846;29;20576;-84
2022/05/09 05:24:36;;;;;;;16.63;14.90;;;12.40;99.90;;;;;;4919217;29;20601;-84
2022/05/09 05:27:04;;;;;;;14.23;13.00;;;12.50;99.90;;;;;;4917007;29;20456;-83
2022/05/09 05:29:30;;;;;;;16.60;15.00;;;12.50;99.90;;;;;;4903712;29;20459;-83
2022/05/09 05:31:59;;;;;;;16.03;14.47;;;12.50;99.90;;;;;;4903214;29;20455;-83
2022/05/09 05:34:25;;;;;;;17.53;15.77;;;12.60;99.90;;;;;;4906451;29;20455;-83
2022/05/09 05:36:54;;;;;;;17.57;14.70;;;12.70;99.90;;;;;;4903905;29;20463;-83
2022/05/09 05:39:20;;;;;;;17.17;15.57;;;12.70;99.90;;;;;;4884039;29;20483;-82
2022/05/09 05:41:47;;;;;;;14.60;13.33;;;12.80;99.90;;;;;;4908505;29;20459;-84
2022/05/09 05:44:14;;;;;;;17.80;15.97;;;12.90;99.90;;;;;;4903008;29;20498;-83
2022/05/09 05:46:42;;;;;;;16.10;14.67;;;13.10;99.90;;;;;;4903512;29;20675;-82
2022/05/09 05:49:10;;;;;;;14.80;13.40;;;13.20;99.90;;;;;;4903893;29;20451;-83
2022/05/09 05:51:37;;;;;;;15.03;13.77;;;13.30;99.90;;;;;;4917177;29;20458;-82
2022/05/09 05:54:05;;;;;;;13.80;12.60;;;13.40;99.90;;;;;;4920267;29;20458;-83
2022/05/09 05:56:33;;;;;;;13.33;12.23;;;13.60;99.90;;;;;;4903049;29;20487;-84
2022/05/09 05:59:00;;;;;;;11.70;10.70;;;13.70;99.90;;;;;;4899590;29;20459;-84
2022/05/09 06:01:27;;;;;;;13.40;12.13;;;13.70;99.90;;;;;;4903231;29;20455;-84
2022/05/09 06:03:53;;;;;;;13.00;10.60;;;13.90;99.90;;;;;;4918337;29;20478;-84
2022/05/09 06:06:22;;;;;;;11.97;11.00;;;13.90;99.90;;;;;;4918698;29;20493;-84
2022/05/09 06:08:48;;;;;;;12.97;11.80;;;14.10;99.90;;;;;;4921242;29;20821;-83
2022/05/09 06:11:15;;;;;;;13.63;12.43;;;14.20;99.90;;;;;;4922693;29;20460;-84
2022/05/09 06:13:42;;;;;;;11.87;10.90;;;14.20;99.90;;;;;;4920182;29;20479;-85
2022/05/09 06:16:10;;;;;;;11.03;10.13;;;14.30;99.90;;;;;;4911891;29;20456;-84
2022/05/09 06:18:37;;;;;;;12.43;11.30;;;14.50;99.90;;;;;;4922130;29;20473;-86
2022/05/09 06:21:04;;;;;;;10.97;10.07;;;14.60;99.90;;;;;;4918928;29;20459;-83
2022/05/09 06:23:32;;;;;;;10.73;9.93;;;14.70;99.90;;;;;;4913433;29;20484;-83
2022/05/09 06:26:02;;;;;;;12.57;11.37;;;14.80;99.90;;;;;;4924496;29;20492;-83
2022/05/09 06:28:29;;;;;;;11.83;10.83;;;14.90;99.90;;;;;;4927526;29;20451;-83
2022/05/09 06:30:57;;;;;;;11.50;10.40;;;15.00;99.90;;;;;;4916926;29;20464;-83
2022/05/09 06:33:25;;;;;;;11.23;10.23;;;14.90;99.90;;;;;;4915169;29;20487;-80
2022/05/09 06:35:53;;;;;;;11.37;10.17;;;15.10;99.90;;;;;;4912713;29;20804;-83
2022/05/09 06:38:22;;;;;;;11.00;9.80;;;15.10;99.90;;;;;;4912571;29;20458;-83
2022/05/09 06:40:50;;;;;;;13.17;11.80;;;15.20;99.90;;;;;;4925141;29;20526;-82
2022/05/09 06:43:17;;;;;;;10.93;10.00;;;15.30;99.90;;;;;;4924010;29;20568;-83
2022/05/09 06:45:44;;;;;;;12.57;11.47;;;15.30;99.90;;;;;;4909261;29;20523;-83
2022/05/09 06:48:11;;;;;;;10.80;9.90;;;15.40;99.90;;;;;;4909377;29;20456;-83
2022/05/09 06:50:40;;;;;;;10.47;9.63;;;15.40;99.90;;;;;;4909475;29;20462;-83
2022/05/09 06:53:08;;;;;;;11.53;10.43;;;15.50;99.90;;;;;;4910094;29;20493;-83
2022/05/09 06:55:35;;;;;;;12.80;10.73;;;15.50;99.90;;;;;;4910366;29;20461;-83
2022/05/09 06:58:06;;;;;;;11.27;10.37;;;15.70;99.90;;;;;;4923514;29;20458;-83
2022/05/09 07:00:33;;;;;;;11.00;10.10;;;15.70;99.90;;;;;;4928634;29;20466;-80
2022/05/09 07:03:00;;;;;;;11.63;10.70;;;15.70;99.90;;;;;;4932152;29;20489;-82
2022/05/09 07:05:27;;;;;;;12.20;11.20;;;15.90;99.90;;;;;;4933381;29;20581;-82
2022/05/09 07:07:54;;;;;;;10.43;9.63;;;15.80;99.90;;;;;;4920502;29;20879;-81
2022/05/09 07:10:22;;;;;;;12.43;11.40;;;15.80;99.90;;;;;;4921481;29;20997;-81
2022/05/09 07:12:51;;;;;;;11.37;10.47;;;16.00;99.90;;;;;;4931232;29;20476;-78
2022/05/09 07:15:22;;;;;;;12.60;11.43;;;16.10;99.90;;;;;;4929775;29;20454;-81
2022/05/09 07:17:51;;;;;;;12.10;11.10;;;16.20;99.90;;;;;;4915636;29;20460;-81
2022/05/09 07:20:20;;;;;;;11.83;10.73;;;16.20;99.90;;;;;;4912736;29;20460;-82
2022/05/09 07:22:47;;;;;;;12.03;11.03;;;16.20;99.90;;;;;;4922177;29;20557;-81
2022/05/09 07:25:16;;;;;;;12.50;11.43;;;16.30;99.90;;;;;;4917270;29;20491;-82
2022/05/09 07:27:43;;;;;;;11.30;10.40;;;16.30;99.90;;;;;;4907142;29;20466;-82
2022/05/09 07:30:11;;;;;;;11.67;10.77;;;16.40;99.90;;;;;;4915035;29;20466;-82
2022/05/09 07:32:39;;;;;;;12.33;11.23;;;16.40;99.90;;;;;;4928872;29;20482;-82
2022/05/09 07:35:10;;;;;;;12.73;11.23;;;16.40;99.90;;;;;;4917814;29;20463;-83
2022/05/09 07:37:37;;;;;;;11.50;10.60;;;16.60;99.90;;;;;;4912962;29;20458;-83
2022/05/09 07:40:04;;;;;;;12.17;11.00;;;16.60;99.90;;;;;;4920586;29;20833;-82
2022/05/09 07:42:34;;;;;;;11.70;10.50;;;16.70;99.90;;;;;;4906517;29;20479;-83
2022/05/09 07:45:01;;;;;;;11.10;10.03;;;16.80;99.90;;;;;;4904149;29;20511;-84
2022/05/09 07:47:27;;;;;;;11.67;10.50;;;16.90;99.90;;;;;;4903976;29;20833;-84
2022/05/09 07:49:56;;;;;;;11.30;10.47;;;17.10;99.90;;;;;;4904627;29;20456;-83
2022/05/09 07:52:22;;;;;;;12.27;11.23;;;17.20;99.90;;;;;;4904639;29;20494;-85
2022/05/09 07:54:50;;;;;;;12.90;11.60;;;17.20;99.90;;;;;;4923736;29;20472;-86
2022/05/09 07:57:32;;;;;;;12.77;11.67;;;17.30;99.90;;;;;;4925611;29;20467;-84
2022/05/09 07:59:59;;;;;;;12.00;10.83;;;17.30;99.90;;;;;;4890511;29;20463;-85
2022/05/09 08:02:29;;;;;;;12.20;11.30;;;17.50;99.90;;;;;;4922293;29;20489;-87
2022/05/09 08:05:10;;;;;;;10.90;10.00;;;17.50;99.90;;;;;;4925624;29;20488;-85
2022/05/09 08:07:36;;;;;;;10.30;9.40;;;17.60;99.90;;;;;;4916931;29;20555;-86
2022/05/09 08:10:04;;;;;;;10.80;9.90;;;17.70;99.90;;;;;;4926500;29;20463;-85
2022/05/09 08:12:31;;;;;;;12.00;11.00;;;17.80;99.90;;;;;;4916754;29;20479;-86
2022/05/09 08:14:57;;;;;;;13.63;12.53;;;17.80;99.90;;;;;;4928406;29;20464;-85
2022/05/09 08:17:24;;;;;;;11.47;10.47;;;17.80;99.90;;;;;;4928711;29;20463;-86
2022/05/09 08:19:55;;;;;;;10.70;9.87;;;17.80;99.90;;;;;;4928901;29;20453;-87
2022/05/09 08:22:25;;;;;;;11.00;10.13;;;17.90;99.90;;;;;;4928420;29;20483;-85
2022/05/09 08:24:52;;;;;;;12.00;11.00;;;18.00;99.90;;;;;;4928955;29;20460;-83
2022/05/09 08:27:27;;;;;;;11.17;10.27;;;18.10;99.90;;;;;;4928357;29;20549;-86
2022/05/09 08:29:56;;;;;;;10.83;9.93;;;18.10;99.90;;;;;;4928847;29;20472;-87
2022/05/09 08:32:23;;;;;;;12.03;10.53;;;18.20;99.90;;;;;;4928398;29;20853;-87
2022/05/09 08:34:51;;;;;;;12.87;11.70;;;18.30;99.90;;;;;;4928576;29;20465;-86
2022/05/09 08:37:19;;;;;;;9.37;8.67;;;18.50;99.90;;;;;;4928352;29;20497;-85
2022/05/09 08:39:48;;;;;;;9.60;8.77;;;18.60;99.90;;;;;;4928677;29;20510;-86
2022/05/09 08:42:19;;;;;;;11.47;10.27;;;18.80;99.90;;;;;;4907590;29;20485;-88
2022/05/09 08:45:08;;;;;;;10.50;9.60;;;18.80;99.90;;;;;;4908193;29;20941;-85
2022/05/09 08:48:13;;;;;;;11.83;10.83;;;18.90;99.90;;;;;;4889480;29;20459;-87
2022/05/09 08:51:03;;;;;;;11.97;10.90;;;19.00;99.90;;;;;;4857146;29;20755;-86
2022/05/09 08:53:34;;;;;;;10.23;9.23;;;19.20;99.90;;;;;;4925188;29;20494;-83
2022/05/09 08:56:02;;;;;;;10.73;9.70;;;19.20;99.90;;;;;;4919604;29;20455;-87
2022/05/09 08:58:40;;;;;;;10.40;9.60;;;19.30;99.90;;;;;;4907820;29;20470;-87
2022/05/09 09:01:13;;;;;;;9.03;8.43;;;19.40;99.90;;;;;;4915277;29;20978;-87
2022/05/09 09:03:44;;;;;;;9.43;8.73;;;19.40;99.90;;;;;;4926972;29;20481;-88
2022/05/09 09:06:20;;;;;;;9.50;8.70;;;19.50;99.90;;;;;;4920012;29;20563;-87
2022/05/09 09:09:02;;;;;;;10.77;9.80;;;19.70;99.90;;;;;;4907621;29;20890;-85
2022/05/09 09:11:40;;;;;;;8.33;7.73;;;19.80;99.90;;;;;;4916234;29;20459;-84
2022/05/09 09:14:16;;;;;;;9.70;9.00;;;19.90;99.90;;;;;;4928871;29;20951;-85
2022/05/09 09:17:13;;;;;;;8.63;7.83;;;19.80;99.70;;;;;;4915512;29;20469;-87
2022/05/09 09:19:58;;;;;;;8.43;7.73;;;19.90;99.60;;;;;;4907096;29;20456;-87
2022/05/09 09:22:48;;;;;;;10.33;9.43;;;20.10;99.10;;;;;;4905804;29;20483;-83
2022/05/09 09:25:27;;;;;;;9.20;8.37;;;20.10;99.10;;;;;;4906129;29;20838;-84
2022/05/09 09:27:59;;;;;;;11.77;8.53;;;20.20;99.40;;;;;;4908245;29;20527;-84
2022/05/09 09:30:27;;;;;;;10.90;10.00;;;20.40;99.30;;;;;;4918387;29;20473;-84
2022/05/09 09:32:57;;;;;;;9.73;9.03;;;20.50;99.00;;;;;;4925502;29;20483;-84
2022/05/09 09:35:34;;;;;;;9.80;9.10;;;20.50;98.20;;;;;;4916089;29;20444;-84
2022/05/09 09:38:07;;;;;;;8.53;7.90;;;20.40;97.00;;;;;;4907017;29;20455;-86
2022/05/09 09:41:00;;;;;;;9.60;8.70;;;20.50;97.70;;;;;;4916101;29;20459;-84
2022/05/09 09:43:51;;;;;;;8.63;8.03;;;20.70;97.40;;;;;;4927578;29;20493;-86
2022/05/09 09:46:19;;;;;;;8.77;8.03;;;20.90;97.20;;;;;;4924231;29;20989;-86
2022/05/09 09:48:45;;;;;;;9.07;8.20;;;21.20;96.40;;;;;;4925943;29;20450;-86
2022/05/09 09:51:17;;;;;;;7.37;6.80;;;21.30;95.40;;;;;;4911393;29;20464;-83
2022/05/09 09:54:01;;;;;;;9.07;8.47;;;21.60;95.50;;;;;;4920412;29;20481;-82
2022/05/09 09:56:31;;;;;;;7.40;6.90;;;22.00;95.00;;;;;;4933291;29;20525;-84
2022/05/09 09:59:16;;;;;;;8.13;7.43;;;22.30;94.50;;;;;;4925449;29;20497;-87
2022/05/09 10:01:43;;;;;;;8.97;8.17;;;22.50;93.90;;;;;;4911606;29;20455;-85
2022/05/09 10:04:12;;;;;;;8.60;7.80;;;22.80;94.10;;;;;;4909148;29;20554;-86
2022/05/09 10:06:59;;;;;;;9.80;9.10;;;23.00;93.80;;;;;;4921503;29;20498;-86
2022/05/09 10:09:29;;;;;;;9.07;8.20;;;22.80;92.90;;;;;;4921944;29;20979;-85
2022/05/09 10:12:20;;;;;;;7.77;7.17;;;23.00;92.60;;;;;;4902398;29;20929;-87
2022/05/09 10:14:50;;;;;;;7.87;7.27;;;23.20;92.60;;;;;;4884942;29;20460;-86
2022/05/09 10:17:20;;;;;;;7.90;7.40;;;23.40;91.10;;;;;;4895884;29;20459;-85
2022/05/09 10:19:48;;;;;;;9.53;8.87;;;23.60;91.50;;;;;;4924763;29;20442;-85
2022/05/09 10:25:09;;;;;;;8.63;7.93;;;23.30;90.60;;;;;;4898630;29;20478;-84
2022/05/09 10:27:37;;;;;;;8.70;8.10;;;23.50;90.70;;;;;;4906055;29;20493;-86
2022/05/09 10:30:08;;;;;;;8.40;7.80;;;23.60;91.00;;;;;;4909566;29;20466;-85
2022/05/09 10:32:45;;;;;;;7.73;7.03;;;23.60;90.40;;;;;;4907352;29;20479;-84
2022/05/09 10:35:18;;;;;;;10.13;9.43;;;23.80;91.10;;;;;;4907565;29;20519;-83
2022/05/09 10:37:54;;;;;;;8.70;8.10;;;24.00;90.80;;;;;;4913477;29;20469;-82
2022/05/09 10:40:25;;;;;;;9.57;8.70;;;24.10;90.60;;;;;;4930361;29;20465;-85
2022/05/09 10:42:59;;;;;;;8.50;7.80;;;24.10;88.90;;;;;;4927328;29;20478;-86
2022/05/09 10:45:31;;;;;;;10.40;9.50;;;24.30;90.80;;;;;;4925628;29;20808;-85
2022/05/09 10:48:08;;;;;;;9.70;8.80;;;24.10;87.70;;;;;;4921130;29;20451;-85
2022/05/09 10:50:41;;;;;;;8.07;7.47;;;24.30;90.90;;;;;;4923031;29;20455;-85
2022/05/09 10:56:45;;;;;;;8.07;7.50;;;24.70;88.20;;;;;;4857488;29;20446;-86
2022/05/09 11:02:24;;;;;;;7.63;7.20;;;25.20;87.80;;;;;;4906558;29;20977;-83
2022/05/09 11:04:55;;;;;;;7.63;7.03;;;25.50;86.60;;;;;;4910147;29;20463;-83
2022/05/09 11:11:56;;;;;;;;;;;;;;;;;;;;;
2022/05/09 11:22:13;;;;;;;7.43;7.00;;;27.70;74.10;;;;;;4809899;29;20496;-84
2022/05/09 11:25:46;;;;;;;7.37;6.87;;;28.10;74.10;;;;;;4864350;29;20466;-85
2022/05/09 11:29:12;;;;;;;7.40;7.00;;;28.70;69.80;;;;;;4912047;29;20567;-84
2022/05/09 11:31:56;;;;;;;7.50;6.80;;;28.60;68.00;;;;;;4825077;29;20457;-85
2022/05/09 11:34:36;;;;;;;6.07;5.57;;;28.60;68.20;;;;;;4839109;29;20473;-83
2022/05/09 11:37:17;;;;;;;6.63;6.13;;;29.00;66.60;;;;;;4897061;29;20485;-84
2022/05/09 11:39:52;;;;;;;7.03;6.50;;;29.50;66.90;;;;;;4890697;29;20555;-86
2022/05/09 11:45:29;;;;;;;6.30;5.90;;;29.60;65.30;;;;;;4898154;29;20459;-82
2022/05/09 11:48:04;;;;;;;6.50;6.00;;;30.30;64.30;;;;;;4881344;29;20490;-83
2022/05/09 11:50:42;;;;;;;6.73;6.13;;;31.00;63.00;;;;;;4885183;29;20458;-84
2022/05/09 11:53:11;;;;;;;7.27;6.87;;;31.80;58.90;;;;;;4897510;29;21004;-85
2022/05/09 11:55:41;;;;;;;6.63;6.17;;;32.00;55.20;;;;;;4908865;29;20957;-85
2022/05/09 11:58:11;;;;;;;6.90;6.50;;;32.10;54.40;;;;;;4894093;29;20485;-84
2022/05/09 12:00:48;;;;;;;7.47;6.87;;;32.10;55.60;;;;;;4898580;29;20461;-85
2022/05/09 12:03:35;;;;;;;6.70;6.30;;;32.60;54.90;;;;;;4894619;29;20477;-85
2022/05/09 12:06:05;;;;;;;7.00;6.50;;;32.50;52.00;;;;;;4891152;29;20503;-85
2022/05/09 12:08:44;;;;;;;7.80;7.30;;;33.00;51.70;;;;;;4892260;29;20453;-85
2022/05/09 12:11:30;;;;;;;6.83;6.20;;;33.50;50.40;;;;;;4893782;29;20462;-85
2022/05/09 12:13:59;;;;;;;6.33;5.90;;;33.50;50.40;;;;;;4893066;29;20480;-85
2022/05/09 12:16:45;;;;;;;7.30;6.90;;;33.60;49.70;;;;;;4893211;29;20454;-85
2022/05/09 12:19:30;;;;;;;6.93;6.10;;;33.90;49.50;;;;;;4892970;29;20463;-85
2022/05/09 12:25:59;;;;;;;5.50;5.20;;;33.70;47.00;;;;;;4891801;29;20443;-86
2022/05/09 12:28:29;;;;;;;7.40;6.90;;;34.00;47.70;;;;;;4892935;29;20519;-82
2022/05/09 12:30:59;;;;;;;6.57;6.07;;;34.00;46.20;;;;;;4892580;29;21042;-83
2022/05/09 12:33:38;;;;;;;6.43;5.93;;;33.70;46.10;;;;;;4892659;29;20469;-83
2022/05/09 12:36:10;;;;;;;6.33;6.03;;;32.90;47.40;;;;;;4892977;29;20455;-84
2022/05/09 12:38:40;;;;;;;6.93;6.50;;;32.70;47.90;;;;;;4892140;29;20463;-84
2022/05/09 12:41:12;;;;;;;7.33;6.80;;;32.60;48.80;;;;;;4892572;29;20454;-85
2022/05/09 12:43:43;;;;;;;6.53;6.10;;;32.70;48.20;;;;;;4891712;29;20544;-84
2022/05/09 12:46:21;;;;;;;5.93;5.63;;;33.20;46.40;;;;;;4890878;29;20472;-85
2022/05/09 12:48:48;;;;;;;5.77;5.37;;;33.70;47.20;;;;;;4891521;29;20463;-85
2022/05/09 12:51:16;;;;;;;6.33;5.93;;;34.20;46.50;;;;;;4891568;29;20538;-85
2022/05/09 12:53:44;;;;;;;6.90;6.43;;;33.90;45.80;;;;;;4892002;29;20491;-85
2022/05/09 12:56:14;;;;;;;7.00;6.40;;;34.10;47.00;;;;;;4892054;29;20462;-85
2022/05/09 12:58:43;;;;;;;6.70;6.13;;;34.10;45.50;;;;;;4890897;29;20467;-85
2022/05/09 13:01:13;;;;;;;5.97;5.50;;;33.80;45.60;;;;;;4890471;29;20462;-84
2022/05/09 13:03:48;;;;;;;6.60;6.13;;;33.70;45.50;;;;;;4891205;29;20851;-85
2022/05/09 13:06:17;;;;;;;6.20;5.70;;;33.40;45.70;;;;;;4891484;29;20461;-85
2022/05/09 13:08:45;;;;;;;7.00;6.50;;;32.90;45.00;;;;;;4892319;29;20460;-85
2022/05/09 13:11:15;;;;;;;7.03;6.53;;;33.20;45.30;;;;;;4892193;29;20818;-84
2022/05/09 13:13:48;;;;;;;5.77;5.37;;;33.40;44.50;;;;;;4890941;29;20487;-84
2022/05/09 13:16:24;;;;;;;5.97;5.67;;;33.50;44.20;;;;;;4892505;29;20458;-84
2022/05/09 13:18:51;;;;;;;6.63;6.23;;;32.00;45.30;;;;;;4892230;29;20459;-83
2022/05/09 13:21:26;;;;;;;6.57;6.03;;;32.30;46.30;;;;;;4892499;29;20818;-84
2022/05/09 13:23:56;;;;;;;6.10;5.70;;;32.80;47.10;;;;;;4891968;29;20480;-84
2022/05/09 13:26:25;;;;;;;6.73;6.37;;;33.20;45.60;;;;;;4892030;29;20977;-83